Time;durP1;ratioP1;P1;durP2;ratioP2;P2;SDS_P1;SDS_P2;PMS_P1;PMS_P2;Temp;Humidity;BMP_temperature;BMP_pressure;BME280_temperature;BME280_humidity;BME280_pressure;Samples;Min_cycle;Max_cycle;Signal;HPM_P1;HPM_P2
2021/07/07 00:02:15;;;;;;;6.50;6.20;;;24.20;99.50;;;;;;3545375;40;20460;-59
2021/07/07 00:04:42;;;;;;;7.10;6.70;;;24.20;99.50;;;;;;3544994;40;20462;-59
2021/07/07 00:07:09;;;;;;;6.73;6.43;;;24.20;99.50;;;;;;3544815;40;21216;-60
2021/07/07 00:09:36;;;;;;;7.00;6.70;;;24.20;99.50;;;;;;3545019;40;20457;-59
2021/07/07 00:12:05;;;;;;;7.20;6.90;;;24.20;99.50;;;;;;3545459;40;20458;-59
2021/07/07 00:14:33;;;;;;;6.50;6.30;;;24.20;99.50;;;;;;3545232;40;20461;-59
2021/07/07 00:17:00;;;;;;;6.90;6.50;;;24.20;99.50;;;;;;3545187;40;20544;-60
2021/07/07 00:19:28;;;;;;;6.40;6.20;;;24.20;99.50;;;;;;3544468;40;20465;-59
2021/07/07 00:21:58;;;;;;;6.10;5.90;;;24.20;99.50;;;;;;3545865;40;20445;-59
2021/07/07 00:24:26;;;;;;;6.30;5.90;;;24.20;99.50;;;;;;3545074;40;20509;-59
2021/07/07 00:26:53;;;;;;;6.70;6.40;;;24.20;99.50;;;;;;3545693;40;20461;-60
2021/07/07 00:29:22;;;;;;;6.20;5.90;;;24.20;99.50;;;;;;3545402;40;20457;-60
2021/07/07 00:31:49;;;;;;;6.87;6.57;;;24.20;99.50;;;;;;3545416;40;20449;-60
2021/07/07 00:34:16;;;;;;;6.87;6.47;;;24.20;99.50;;;;;;3545400;40;20505;-58
2021/07/07 00:36:58;;;;;;;6.63;6.10;;;24.20;99.50;;;;;;3545330;40;20457;-60
2021/07/07 00:39:26;;;;;;;6.97;6.60;;;24.20;99.40;;;;;;3546033;40;20469;-59
2021/07/07 00:41:53;;;;;;;6.67;6.30;;;24.20;99.50;;;;;;3545167;40;20462;-59
2021/07/07 00:44:22;;;;;;;6.43;6.10;;;24.20;99.40;;;;;;3545737;40;20453;-59
2021/07/07 00:46:49;;;;;;;6.87;6.47;;;24.20;99.50;;;;;;3544973;40;20450;-58
2021/07/07 00:49:16;;;;;;;6.10;5.90;;;24.20;99.50;;;;;;3545603;40;20453;-59
2021/07/07 00:51:44;;;;;;;6.27;6.07;;;24.20;99.50;;;;;;3545630;40;20466;-59
2021/07/07 00:54:14;;;;;;;6.70;6.30;;;24.20;99.50;;;;;;3545308;40;20465;-59
2021/07/07 00:56:44;;;;;;;6.30;6.00;;;24.20;99.50;;;;;;3536342;40;20460;-55
2021/07/07 00:59:14;;;;;;;6.47;6.17;;;24.20;99.40;;;;;;3545401;40;20775;-59
2021/07/07 01:01:43;;;;;;;6.43;5.97;;;24.20;99.40;;;;;;3545413;40;20477;-59
2021/07/07 01:04:10;;;;;;;6.60;6.30;;;24.20;99.40;;;;;;3544091;40;20945;-60
2021/07/07 01:06:40;;;;;;;6.30;6.07;;;24.20;99.40;;;;;;3544707;40;20453;-59
2021/07/07 01:09:08;;;;;;;6.83;6.53;;;24.20;99.40;;;;;;3546341;40;20759;-59
2021/07/07 01:11:35;;;;;;;6.70;6.30;;;24.20;99.40;;;;;;3546748;40;20458;-58
2021/07/07 01:14:03;;;;;;;6.40;6.10;;;24.20;99.40;;;;;;3546621;40;20453;-59
2021/07/07 01:16:32;;;;;;;5.90;5.70;;;24.20;99.40;;;;;;3546809;40;20473;-59
2021/07/07 01:19:00;;;;;;;5.83;5.63;;;24.20;99.40;;;;;;3546829;40;20478;-59
2021/07/07 01:21:28;;;;;;;6.97;6.50;;;24.20;99.40;;;;;;3545729;40;20536;-60
2021/07/07 01:23:56;;;;;;;6.20;5.90;;;24.20;99.40;;;;;;3546493;40;20458;-59
2021/07/07 01:26:24;;;;;;;6.10;5.80;;;24.20;99.40;;;;;;3546319;40;20457;-59
2021/07/07 01:28:51;;;;;;;6.67;6.17;;;24.20;99.40;;;;;;3546327;40;20465;-59
2021/07/07 01:31:18;;;;;;;6.37;6.17;;;24.20;99.40;;;;;;3546062;40;20450;-59
2021/07/07 01:33:46;;;;;;;6.60;6.30;;;24.20;99.40;;;;;;3546480;40;20840;-60
2021/07/07 01:36:13;;;;;;;6.27;6.00;;;24.20;99.40;;;;;;3546181;40;20456;-58
2021/07/07 01:41:52;;;;;;;6.60;6.20;;;24.20;99.40;;;;;;5245146;23;20531;-58
2021/07/07 01:44:19;;;;;;;6.33;6.03;;;24.20;99.30;;;;;;3523758;40;20793;-55
2021/07/07 01:46:46;;;;;;;6.87;6.57;;;24.20;99.30;;;;;;3514400;40;20703;-57
2021/07/07 01:49:14;;;;;;;6.53;6.27;;;24.20;99.30;;;;;;3524927;40;20463;-58
2021/07/07 01:51:41;;;;;;;6.60;6.40;;;24.20;99.40;;;;;;3525953;40;20454;-58
2021/07/07 01:54:08;;;;;;;6.43;6.23;;;24.20;99.30;;;;;;3525647;40;20506;-58
2021/07/07 01:56:36;;;;;;;6.80;6.50;;;24.20;99.40;;;;;;3531437;40;20598;-58
2021/07/07 01:59:04;;;;;;;6.40;6.20;;;24.20;99.40;;;;;;3531686;40;20506;-57
2021/07/07 02:01:31;;;;;;;7.23;6.80;;;24.20;99.30;;;;;;3524198;40;20527;-56
2021/07/07 02:03:59;;;;;;;7.27;6.97;;;24.20;99.30;;;;;;3524554;40;20459;-58
2021/07/07 02:06:27;;;;;;;6.50;6.30;;;24.20;99.30;;;;;;3515964;40;20458;-60
2021/07/07 02:08:54;;;;;;;6.90;6.60;;;24.20;99.30;;;;;;3523795;40;20498;-58
2021/07/07 02:11:23;;;;;;;6.63;6.33;;;24.20;99.30;;;;;;3525035;40;20921;-59
2021/07/07 02:13:50;;;;;;;6.33;6.13;;;24.20;99.30;;;;;;3516163;40;20494;-58
2021/07/07 02:16:18;;;;;;;7.20;6.90;;;24.20;99.30;;;;;;3524842;40;20460;-58
2021/07/07 02:18:46;;;;;;;8.00;7.37;;;24.20;99.30;;;;;;3524495;40;20674;-58
2021/07/07 02:21:13;;;;;;;7.20;6.90;;;24.20;99.30;;;;;;3524919;40;20688;-58
2021/07/07 02:23:40;;;;;;;6.97;6.57;;;24.20;99.30;;;;;;3524401;40;20655;-58
2021/07/07 02:26:07;;;;;;;7.33;7.03;;;24.20;99.30;;;;;;3524923;40;20459;-58
2021/07/07 02:28:35;;;;;;;7.17;6.87;;;24.20;99.30;;;;;;3525607;40;20460;-59
2021/07/07 02:31:02;;;;;;;6.27;6.07;;;24.20;99.30;;;;;;3525241;40;20460;-58
2021/07/07 02:33:31;;;;;;;6.80;6.40;;;24.20;99.30;;;;;;3524434;40;20447;-59
2021/07/07 02:35:58;;;;;;;7.27;6.80;;;24.20;99.30;;;;;;3523781;40;20483;-59
2021/07/07 02:38:28;;;;;;;6.93;6.63;;;24.20;99.30;;;;;;3524715;40;20863;-58
2021/07/07 02:40:56;;;;;;;7.27;6.97;;;24.20;99.30;;;;;;3524929;40;20516;-57
2021/07/07 02:43:23;;;;;;;6.70;6.50;;;24.20;99.30;;;;;;3524304;40;20583;-60
2021/07/07 02:45:51;;;;;;;6.40;6.20;;;24.20;99.30;;;;;;3524331;40;20938;-55
2021/07/07 02:48:18;;;;;;;7.57;7.10;;;24.20;99.30;;;;;;3523438;40;20901;-59
2021/07/07 02:50:48;;;;;;;7.30;7.03;;;24.20;99.30;;;;;;3523530;40;20452;-58
2021/07/07 02:53:17;;;;;;;6.87;6.67;;;24.20;99.30;;;;;;3522793;40;20474;-58
2021/07/07 02:55:44;;;;;;;7.00;6.70;;;24.20;99.30;;;;;;3524225;40;20452;-57
2021/07/07 02:58:12;;;;;;;7.10;6.80;;;24.20;99.30;;;;;;3514738;40;20788;-59
2021/07/07 03:00:41;;;;;;;6.90;6.60;;;24.20;99.30;;;;;;3523419;40;20475;-56
2021/07/07 03:03:10;;;;;;;7.40;7.10;;;24.20;99.30;;;;;;3523658;40;20705;-58
2021/07/07 03:05:40;;;;;;;7.33;7.03;;;24.20;99.20;;;;;;3524450;40;20853;-56
2021/07/07 03:08:10;;;;;;;7.20;6.90;;;24.20;99.20;;;;;;3523713;40;20460;-55
2021/07/07 03:10:37;;;;;;;6.97;6.70;;;24.20;99.20;;;;;;3531567;40;20459;-58
2021/07/07 03:13:05;;;;;;;7.13;6.83;;;24.20;99.20;;;;;;3524979;40;20487;-59
2021/07/07 03:15:35;;;;;;;7.67;7.37;;;24.20;99.20;;;;;;3523637;40;20930;-56
2021/07/07 03:18:03;;;;;;;7.93;7.50;;;24.20;99.20;;;;;;3524302;40;20482;-59
2021/07/07 03:20:31;;;;;;;7.57;7.27;;;24.20;99.20;;;;;;3530464;40;20479;-59
2021/07/07 03:22:58;;;;;;;7.30;7.00;;;24.20;99.20;;;;;;3523686;40;20933;-55
2021/07/07 03:25:27;;;;;;;7.97;7.60;;;24.20;99.20;;;;;;3524258;40;20455;-59
2021/07/07 03:27:54;;;;;;;8.00;7.50;;;24.20;99.20;;;;;;3524581;40;20481;-59
2021/07/07 03:30:25;;;;;;;7.97;7.60;;;24.20;99.20;;;;;;3522789;40;21013;-56
2021/07/07 03:32:52;;;;;;;7.73;7.43;;;24.20;99.20;;;;;;3524329;40;20783;-58
2021/07/07 03:35:19;;;;;;;8.50;8.10;;;24.20;99.20;;;;;;3523682;40;20797;-58
2021/07/07 03:37:46;;;;;;;9.20;8.70;;;24.20;99.20;;;;;;3523277;40;20451;-59
2021/07/07 03:40:14;;;;;;;9.20;8.80;;;24.20;99.20;;;;;;3522445;40;20464;-57
2021/07/07 03:42:44;;;;;;;8.50;8.20;;;24.20;99.20;;;;;;3523015;40;20708;-57
2021/07/07 03:45:15;;;;;;;8.57;7.90;;;24.20;99.20;;;;;;3521319;40;20608;-58
2021/07/07 03:47:43;;;;;;;8.53;8.13;;;24.20;99.20;;;;;;3524164;40;20490;-59
2021/07/07 03:50:12;;;;;;;8.43;7.97;;;24.20;99.20;;;;;;3523984;40;20515;-60
2021/07/07 03:52:39;;;;;;;9.20;8.90;;;24.20;99.20;;;;;;3514645;40;20479;-59
2021/07/07 03:55:07;;;;;;;9.70;9.30;;;24.20;99.20;;;;;;3524520;40;20448;-58
2021/07/07 03:57:35;;;;;;;9.60;9.20;;;24.20;99.20;;;;;;3515385;40;20748;-58
2021/07/07 04:00:05;;;;;;;9.87;9.23;;;24.20;99.20;;;;;;3523191;40;20491;-59
2021/07/07 04:02:39;;;;;;;9.60;9.20;;;24.20;99.20;;;;;;3524647;40;20459;-58
2021/07/07 04:05:09;;;;;;;9.33;8.93;;;24.20;99.20;;;;;;3525157;40;20462;-59
2021/07/07 04:07:37;;;;;;;9.30;8.97;;;24.20;99.20;;;;;;3523971;40;20456;-59
2021/07/07 04:10:05;;;;;;;10.17;9.77;;;24.20;99.20;;;;;;3523713;40;20471;-58
2021/07/07 04:12:33;;;;;;;10.03;9.63;;;24.20;99.20;;;;;;3524715;40;20471;-59
2021/07/07 04:15:00;;;;;;;10.20;9.60;;;24.20;99.20;;;;;;3523542;40;20456;-58
2021/07/07 04:17:29;;;;;;;10.60;10.10;;;24.20;99.20;;;;;;3524283;40;20566;-58
2021/07/07 04:19:56;;;;;;;10.03;9.60;;;24.20;99.20;;;;;;3524339;40;20549;-58
2021/07/07 04:22:23;;;;;;;10.10;9.70;;;24.20;99.20;;;;;;3514437;40;20451;-59
2021/07/07 04:24:50;;;;;;;10.17;9.60;;;24.20;99.20;;;;;;3514915;40;21006;-59
2021/07/07 04:27:18;;;;;;;10.00;9.60;;;24.20;99.20;;;;;;3514212;40;20863;-59
2021/07/07 04:29:45;;;;;;;9.97;9.33;;;24.20;99.20;;;;;;3520781;40;20474;-59
2021/07/07 04:32:12;;;;;;;9.30;8.80;;;24.20;99.20;;;;;;3521914;40;20491;-58
2021/07/07 04:34:41;;;;;;;9.10;8.40;;;24.20;99.20;;;;;;3520868;40;20648;-59
2021/07/07 04:37:08;;;;;;;9.10;8.70;;;24.20;99.20;;;;;;3521974;40;20459;-59
2021/07/07 04:39:35;;;;;;;8.60;8.20;;;24.20;99.20;;;;;;3521131;40;20813;-57
2021/07/07 04:42:03;;;;;;;9.30;8.80;;;24.20;99.20;;;;;;3530942;40;20493;-58
2021/07/07 04:44:30;;;;;;;8.87;8.50;;;24.20;99.20;;;;;;3532028;40;20843;-59
2021/07/07 04:46:59;;;;;;;9.13;8.63;;;24.20;99.10;;;;;;3532924;40;20482;-59
2021/07/07 04:49:27;;;;;;;9.03;8.73;;;24.20;99.20;;;;;;3532925;40;20823;-58
2021/07/07 04:51:55;;;;;;;9.00;8.60;;;24.20;99.10;;;;;;3533734;40;20447;-59
2021/07/07 04:54:22;;;;;;;9.13;8.70;;;24.20;99.10;;;;;;3531508;40;20762;-59
2021/07/07 04:56:50;;;;;;;9.00;8.70;;;24.20;99.10;;;;;;3531267;40;20475;-59
2021/07/07 04:59:17;;;;;;;8.50;8.17;;;24.20;99.10;;;;;;3531736;40;20554;-60
2021/07/07 05:01:44;;;;;;;9.40;9.00;;;24.20;99.10;;;;;;3530995;40;20487;-59
2021/07/07 05:04:12;;;;;;;8.77;8.47;;;24.20;99.20;;;;;;3529149;40;20509;-59
2021/07/07 05:06:39;;;;;;;9.23;8.83;;;24.20;99.10;;;;;;3522905;40;20463;-58
2021/07/07 05:09:07;;;;;;;9.50;9.10;;;24.20;99.20;;;;;;3514212;40;20462;-59
2021/07/07 05:11:35;;;;;;;9.53;9.03;;;24.20;99.10;;;;;;3516393;40;20483;-59
2021/07/07 05:14:02;;;;;;;8.70;8.40;;;24.20;99.10;;;;;;3522702;40;20869;-59
2021/07/07 05:16:30;;;;;;;8.60;8.20;;;24.20;99.10;;;;;;3528318;40;20455;-59
2021/07/07 05:18:57;;;;;;;9.10;8.70;;;24.20;99.10;;;;;;3530186;40;20461;-59
2021/07/07 05:21:24;;;;;;;8.90;8.40;;;24.20;99.10;;;;;;3528267;40;20481;-59
2021/07/07 05:23:51;;;;;;;8.43;8.10;;;24.20;99.10;;;;;;3526425;40;20486;-58
2021/07/07 05:26:20;;;;;;;10.03;9.63;;;24.20;99.20;;;;;;3527304;40;20998;-59
2021/07/07 05:28:47;;;;;;;10.40;10.00;;;24.20;99.20;;;;;;3527990;40;20455;-58
2021/07/07 05:31:14;;;;;;;10.30;9.80;;;24.20;99.20;;;;;;3528675;40;20469;-59
2021/07/07 05:33:41;;;;;;;9.73;9.33;;;24.20;99.20;;;;;;3528138;40;20446;-59
2021/07/07 05:36:10;;;;;;;9.80;9.40;;;24.20;99.10;;;;;;3528562;40;20477;-58
2021/07/07 05:38:38;;;;;;;10.57;10.17;;;24.20;99.10;;;;;;3526474;40;20457;-58
2021/07/07 05:41:05;;;;;;;9.73;9.33;;;24.20;99.10;;;;;;3524453;40;20493;-59
2021/07/07 05:43:34;;;;;;;9.80;9.40;;;24.20;99.10;;;;;;3525644;40;20474;-59
2021/07/07 05:46:01;;;;;;;9.67;9.23;;;24.20;99.10;;;;;;3527579;40;21309;-59
2021/07/07 05:48:29;;;;;;;9.37;8.97;;;24.20;99.10;;;;;;3526449;40;20455;-59
2021/07/07 05:50:56;;;;;;;9.77;9.37;;;24.20;99.10;;;;;;3526617;40;20470;-59
2021/07/07 05:53:24;;;;;;;9.40;9.00;;;24.20;99.10;;;;;;3525599;40;21259;-58
2021/07/07 05:55:51;;;;;;;9.30;9.00;;;24.20;99.10;;;;;;3523680;40;20478;-58
2021/07/07 05:58:18;;;;;;;9.53;9.13;;;24.20;99.10;;;;;;3525084;40;20462;-58
2021/07/07 06:00:47;;;;;;;9.40;9.00;;;24.20;99.10;;;;;;3523915;40;20486;-59
2021/07/07 06:03:15;;;;;;;8.80;8.50;;;24.20;99.10;;;;;;3522195;40;20570;-59
2021/07/07 06:05:42;;;;;;;8.87;8.47;;;24.20;99.10;;;;;;3522073;40;20462;-58
2021/07/07 06:08:09;;;;;;;9.20;8.70;;;24.20;99.10;;;;;;3521238;40;20474;-58
2021/07/07 06:10:36;;;;;;;8.80;8.20;;;24.20;99.10;;;;;;3521000;40;20450;-58
2021/07/07 06:13:04;;;;;;;8.50;8.00;;;24.20;99.10;;;;;;3521552;40;20467;-59
2021/07/07 06:15:36;;;;;;;8.87;8.47;;;24.20;99.10;;;;;;3517493;40;20458;-59
2021/07/07 06:18:05;;;;;;;9.03;8.57;;;24.20;99.10;;;;;;3517695;40;20478;-60
2021/07/07 06:20:32;;;;;;;8.30;8.00;;;24.20;99.10;;;;;;3517123;40;20479;-59
2021/07/07 06:22:59;;;;;;;9.40;8.80;;;24.20;99.10;;;;;;3516448;40;20691;-59
2021/07/07 06:25:27;;;;;;;8.90;8.53;;;24.20;99.10;;;;;;3520189;40;20459;-57
2021/07/07 06:27:55;;;;;;;9.23;8.50;;;24.20;99.20;;;;;;3518990;40;20675;-57
2021/07/07 06:30:25;;;;;;;8.97;8.57;;;24.20;99.20;;;;;;3520105;40;20501;-57
2021/07/07 06:32:53;;;;;;;9.23;8.83;;;24.20;99.20;;;;;;3520716;40;20533;-59
2021/07/07 06:35:22;;;;;;;8.27;7.97;;;24.20;99.20;;;;;;3517737;40;20470;-59
2021/07/07 06:37:51;;;;;;;8.70;8.20;;;24.20;99.50;;;;;;3519391;40;20462;-60
2021/07/07 06:40:19;;;;;;;9.37;8.97;;;24.20;99.20;;;;;;3514791;40;20456;-60
2021/07/07 06:42:48;;;;;;;8.70;8.33;;;24.20;99.20;;;;;;3508779;40;20490;-60
2021/07/07 06:45:18;;;;;;;8.83;8.33;;;24.20;99.50;;;;;;3509790;40;20448;-60
2021/07/07 06:47:45;;;;;;;9.17;8.70;;;24.20;99.20;;;;;;3511083;40;20523;-60
2021/07/07 06:50:14;;;;;;;8.43;7.93;;;24.20;99.20;;;;;;3509957;40;20504;-59
2021/07/07 06:52:43;;;;;;;8.73;7.93;;;24.20;99.20;;;;;;3505091;40;20486;-60
2021/07/07 06:55:11;;;;;;;8.57;8.07;;;24.20;99.20;;;;;;3509454;40;20470;-59
2021/07/07 06:57:38;;;;;;;7.77;7.27;;;24.20;99.30;;;;;;3509729;40;20471;-59
2021/07/07 07:00:08;;;;;;;7.83;7.40;;;23.90;99.80;;;;;;3505224;40;20471;-58
2021/07/07 07:02:36;;;;;;;7.80;7.50;;;23.50;99.90;;;;;;3507781;40;20781;-59
2021/07/07 07:05:05;;;;;;;7.83;7.53;;;23.10;99.90;;;;;;3508459;40;20551;-57
2021/07/07 07:07:32;;;;;;;8.17;7.93;;;22.70;99.90;;;;;;3502561;40;20931;-57
2021/07/07 07:10:01;;;;;;;7.80;7.60;;;22.40;99.90;;;;;;3507638;40;20458;-59
2021/07/07 07:12:28;;;;;;;7.60;7.30;;;22.30;99.90;;;;;;3510904;40;20483;-59
2021/07/07 07:14:56;;;;;;;7.80;7.50;;;22.10;99.90;;;;;;3506698;40;20753;-58
2021/07/07 07:17:25;;;;;;;7.30;7.10;;;21.90;99.90;;;;;;3501275;40;20474;-58
2021/07/07 07:19:53;;;;;;;7.43;7.20;;;21.80;99.90;;;;;;3510559;40;20452;-58
2021/07/07 07:22:20;;;;;;;7.83;7.63;;;21.80;99.90;;;;;;3506268;40;20479;-61
2021/07/07 07:24:50;;;;;;;7.80;7.60;;;21.70;99.90;;;;;;3501178;40;20464;-60
2021/07/07 07:27:19;;;;;;;8.10;7.70;;;21.60;99.90;;;;;;3496516;40;20606;-61
2021/07/07 07:29:47;;;;;;;7.03;6.83;;;21.60;99.90;;;;;;3504173;40;20716;-60
2021/07/07 07:32:15;;;;;;;7.47;7.27;;;21.60;99.90;;;;;;3506012;40;20480;-60
2021/07/07 07:34:42;;;;;;;7.40;7.13;;;21.60;99.90;;;;;;3503031;40;20701;-59
2021/07/07 07:37:13;;;;;;;8.13;7.87;;;21.50;99.90;;;;;;3504009;40;20924;-59
2021/07/07 07:39:44;;;;;;;7.67;7.27;;;21.50;99.90;;;;;;3505463;40;20456;-57
2021/07/07 07:42:13;;;;;;;8.20;7.90;;;21.50;99.90;;;;;;3515593;40;20660;-56
2021/07/07 07:44:44;;;;;;;8.10;7.80;;;21.50;99.90;;;;;;3509446;40;20472;-59
2021/07/07 07:47:12;;;;;;;7.80;7.50;;;21.40;99.90;;;;;;3509069;40;20734;-58
2021/07/07 07:49:39;;;;;;;7.73;7.37;;;21.40;99.90;;;;;;3513799;40;20458;-58
2021/07/07 07:52:07;;;;;;;7.87;7.67;;;21.30;99.90;;;;;;3512565;40;20756;-58
2021/07/07 07:54:35;;;;;;;8.00;7.80;;;21.30;99.90;;;;;;3509437;40;20698;-57
2021/07/07 07:57:03;;;;;;;7.87;7.47;;;21.30;99.90;;;;;;3515072;40;20478;-58
2021/07/07 07:59:30;;;;;;;7.93;7.53;;;21.30;99.90;;;;;;3518400;40;20494;-59
2021/07/07 08:01:59;;;;;;;7.83;7.63;;;21.40;99.90;;;;;;3511834;40;20494;-58
2021/07/07 08:04:26;;;;;;;8.33;8.03;;;21.30;99.90;;;;;;3512957;40;20533;-58
2021/07/07 08:06:53;;;;;;;8.43;8.13;;;21.30;99.90;;;;;;3512705;40;20887;-58
2021/07/07 08:09:21;;;;;;;7.93;7.73;;;21.30;99.90;;;;;;3501425;40;20881;-57
2021/07/07 08:11:50;;;;;;;8.10;7.70;;;21.30;99.90;;;;;;3513639;40;20467;-56
2021/07/07 08:14:17;;;;;;;8.63;8.33;;;21.30;99.90;;;;;;3511292;40;20565;-59
2021/07/07 08:16:45;;;;;;;7.53;7.20;;;21.40;99.90;;;;;;3511688;40;20481;-59
2021/07/07 08:19:13;;;;;;;7.33;7.13;;;21.40;99.90;;;;;;3512988;40;20477;-58
2021/07/07 08:21:41;;;;;;;7.47;7.07;;;21.40;99.90;;;;;;3513605;40;20490;-58
2021/07/07 08:24:08;;;;;;;7.57;7.20;;;21.40;99.90;;;;;;3516167;40;20619;-57
2021/07/07 08:26:36;;;;;;;7.23;7.03;;;21.40;99.90;;;;;;3510434;40;20788;-59
2021/07/07 08:29:03;;;;;;;7.43;7.13;;;21.40;99.90;;;;;;3512081;40;20447;-57
2021/07/07 08:31:30;;;;;;;8.10;7.70;;;21.40;99.90;;;;;;3510608;40;20489;-58
2021/07/07 08:33:57;;;;;;;7.57;7.10;;;21.40;99.90;;;;;;3511545;40;20474;-58
2021/07/07 08:36:26;;;;;;;9.00;8.70;;;21.30;99.90;;;;;;3512982;40;20990;-58
2021/07/07 08:38:55;;;;;;;8.00;7.70;;;21.30;99.90;;;;;;3516175;40;20467;-57
2021/07/07 08:41:23;;;;;;;7.70;7.40;;;21.30;99.90;;;;;;3509323;40;20684;-58
2021/07/07 08:43:51;;;;;;;6.80;6.60;;;21.30;99.90;;;;;;3511007;40;20691;-58
2021/07/07 08:46:18;;;;;;;9.13;8.57;;;21.40;99.90;;;;;;3513054;40;20797;-59
2021/07/07 08:48:46;;;;;;;8.57;8.07;;;21.40;99.90;;;;;;3511011;40;20463;-60
2021/07/07 08:51:13;;;;;;;7.93;7.60;;;21.40;99.90;;;;;;3512986;40;20491;-59
2021/07/07 08:53:43;;;;;;;7.93;7.63;;;21.40;99.90;;;;;;3516461;40;20526;-58
2021/07/07 08:56:12;;;;;;;8.20;7.90;;;21.40;99.90;;;;;;3518609;40;20462;-59
2021/07/07 08:58:39;;;;;;;7.60;7.30;;;21.40;99.90;;;;;;3513040;40;21009;-57
2021/07/07 09:01:06;;;;;;;7.97;7.67;;;21.40;99.90;;;;;;3511118;40;20754;-60
2021/07/07 09:03:34;;;;;;;8.33;8.03;;;21.50;99.90;;;;;;3516198;40;20470;-58
2021/07/07 09:06:03;;;;;;;7.53;7.23;;;21.60;99.90;;;;;;3507285;40;20669;-58
2021/07/07 09:08:33;;;;;;;7.20;6.80;;;21.60;99.90;;;;;;3495565;40;21026;-57
2021/07/07 09:11:16;;;;;;;7.10;6.80;;;21.60;99.90;;;;;;3499189;40;20554;-58
2021/07/07 09:13:44;;;;;;;7.00;6.70;;;21.60;99.90;;;;;;3501679;40;20760;-59
2021/07/07 09:16:14;;;;;;;6.83;6.53;;;21.60;99.90;;;;;;3497073;40;20785;-58
2021/07/07 09:18:41;;;;;;;7.00;6.70;;;21.70;99.90;;;;;;3496465;40;20730;-58
2021/07/07 09:21:25;;;;;;;6.43;6.23;;;21.70;99.90;;;;;;3499374;40;21004;-59
2021/07/07 09:23:53;;;;;;;6.53;6.33;;;21.80;99.90;;;;;;3499505;40;20499;-52
2021/07/07 09:26:30;;;;;;;6.70;6.50;;;22.00;99.90;;;;;;3508948;40;20965;-58
2021/07/07 09:28:57;;;;;;;6.70;6.50;;;22.30;99.90;;;;;;3512328;40;21078;-57
2021/07/07 09:31:34;;;;;;;6.50;6.30;;;22.50;99.90;;;;;;3514778;40;20470;-57
2021/07/07 09:34:14;;;;;;;7.50;7.20;;;22.60;99.90;;;;;;3514643;40;20458;-57
2021/07/07 09:36:44;;;;;;;6.73;6.53;;;22.70;99.90;;;;;;3516807;40;20545;-57
2021/07/07 09:39:12;;;;;;;7.20;7.00;;;22.80;99.90;;;;;;3514801;40;20997;-56
2021/07/07 09:41:41;;;;;;;6.83;6.63;;;22.90;99.90;;;;;;3511304;40;20739;-57
2021/07/07 09:44:10;;;;;;;6.20;6.00;;;23.00;99.90;;;;;;3515183;40;20677;-58
2021/07/07 09:46:38;;;;;;;5.97;5.77;;;23.10;99.90;;;;;;3517163;40;20948;-58
2021/07/07 09:49:05;;;;;;;6.07;5.87;;;23.10;99.90;;;;;;3517001;40;20478;-57
2021/07/07 09:51:33;;;;;;;6.80;6.60;;;23.20;99.90;;;;;;3512764;40;20557;-54
2021/07/07 09:54:05;;;;;;;6.60;6.40;;;23.20;99.90;;;;;;3513775;40;20467;-56
2021/07/07 09:56:33;;;;;;;6.50;6.30;;;23.30;99.90;;;;;;3515520;40;20478;-57
2021/07/07 09:59:03;;;;;;;6.50;6.20;;;23.30;99.90;;;;;;3514165;40;20917;-58
2021/07/07 10:01:31;;;;;;;6.80;6.60;;;23.30;99.90;;;;;;3512093;40;20487;-58
2021/07/07 10:03:59;;;;;;;7.50;7.30;;;23.40;99.90;;;;;;3511517;40;20474;-60
2021/07/07 10:06:27;;;;;;;6.83;6.63;;;23.40;99.90;;;;;;3514169;40;20675;-60
2021/07/07 10:08:54;;;;;;;6.80;6.60;;;23.40;99.90;;;;;;3511149;40;20564;-60
2021/07/07 10:11:23;;;;;;;6.13;5.93;;;23.50;99.90;;;;;;3512915;40;20508;-60
2021/07/07 10:13:50;;;;;;;6.03;5.83;;;23.50;99.90;;;;;;3512383;40;20471;-60
2021/07/07 10:16:19;;;;;;;6.90;6.60;;;23.50;99.90;;;;;;3511232;40;20463;-60
2021/07/07 10:18:47;;;;;;;6.20;5.90;;;23.50;99.90;;;;;;3510278;40;20707;-59
2021/07/07 10:21:15;;;;;;;6.83;6.53;;;23.50;99.90;;;;;;3510783;40;20474;-59
2021/07/07 10:23:42;;;;;;;6.40;6.10;;;23.50;99.90;;;;;;3515236;40;20439;-60
2021/07/07 10:26:11;;;;;;;6.80;6.50;;;23.50;99.90;;;;;;3511961;40;21059;-60
2021/07/07 10:28:38;;;;;;;5.80;5.70;;;23.60;99.90;;;;;;3502236;40;20810;-59
2021/07/07 10:31:07;;;;;;;6.17;5.67;;;23.60;99.90;;;;;;3509846;40;20527;-60
2021/07/07 10:33:37;;;;;;;6.33;6.13;;;23.60;99.90;;;;;;3507674;40;20830;-59
2021/07/07 10:36:22;;;;;;;6.10;5.90;;;23.60;99.90;;;;;;3510584;40;21043;-59
2021/07/07 10:38:56;;;;;;;6.87;6.20;;;23.60;99.90;;;;;;3517605;40;20490;-60
2021/07/07 10:41:46;;;;;;;7.30;6.90;;;23.60;99.90;;;;;;3509710;40;20999;-60
2021/07/07 10:44:47;;;;;;;7.17;6.97;;;23.60;99.90;;;;;;3513068;40;20470;-60
2021/07/07 10:47:16;;;;;;;6.90;6.70;;;23.60;99.90;;;;;;3513116;40;21330;-58
2021/07/07 10:49:46;;;;;;;7.10;6.90;;;23.60;99.90;;;;;;3515511;40;20963;-60
2021/07/07 10:52:16;;;;;;;6.73;6.53;;;23.60;99.90;;;;;;3508987;40;20652;-61
2021/07/07 10:54:55;;;;;;;7.07;6.77;;;23.60;99.90;;;;;;3516074;40;20482;-60
2021/07/07 10:57:24;;;;;;;7.20;6.90;;;23.70;99.90;;;;;;3515312;40;20608;-61
2021/07/07 10:59:55;;;;;;;6.97;6.77;;;23.70;99.90;;;;;;3512356;40;20479;-60
2021/07/07 11:02:24;;;;;;;7.27;6.97;;;23.70;99.90;;;;;;3513781;40;20631;-60
2021/07/07 11:04:56;;;;;;;7.20;6.90;;;23.70;99.90;;;;;;3511050;40;20642;-60
2021/07/07 11:07:36;;;;;;;6.67;6.47;;;23.70;99.90;;;;;;3511105;40;20455;-61
2021/07/07 11:10:07;;;;;;;6.93;6.73;;;23.70;99.90;;;;;;3505317;40;20557;-60
2021/07/07 11:13:12;;;;;;;6.77;6.57;;;23.70;99.90;;;;;;3506459;40;20489;-60
2021/07/07 11:15:40;;;;;;;7.60;7.40;;;23.70;99.90;;;;;;3513124;40;20454;-60
2021/07/07 11:18:18;;;;;;;8.10;7.80;;;23.70;99.90;;;;;;3513012;40;20890;-60
2021/07/07 11:20:55;;;;;;;7.80;7.60;;;23.70;99.90;;;;;;3515179;40;21019;-60
2021/07/07 11:23:33;;;;;;;8.10;7.80;;;23.70;99.90;;;;;;3507718;40;20731;-60
2021/07/07 11:26:02;;;;;;;7.60;7.40;;;23.70;99.90;;;;;;3511379;40;20546;-59
2021/07/07 11:28:30;;;;;;;7.00;6.80;;;23.70;99.90;;;;;;3516671;40;20466;-60
2021/07/07 11:30:58;;;;;;;7.37;6.97;;;23.70;99.90;;;;;;3501361;40;20561;-60
2021/07/07 11:33:25;;;;;;;6.90;6.60;;;23.70;99.90;;;;;;3512530;40;20482;-60
2021/07/07 11:35:54;;;;;;;6.80;6.60;;;23.70;99.90;;;;;;3509851;40;20491;-59
2021/07/07 11:38:23;;;;;;;7.43;7.20;;;23.70;99.90;;;;;;3512062;40;20675;-60
2021/07/07 11:40:53;;;;;;;7.20;6.90;;;23.80;99.90;;;;;;3515426;40;20591;-60
2021/07/07 11:43:24;;;;;;;7.87;7.50;;;23.80;99.90;;;;;;3514866;40;20483;-59
2021/07/07 11:45:56;;;;;;;6.83;6.63;;;23.70;99.90;;;;;;3515649;40;20463;-60
2021/07/07 11:48:28;;;;;;;7.20;7.00;;;23.80;99.90;;;;;;3508032;40;20538;-60
2021/07/07 11:50:59;;;;;;;7.57;7.27;;;23.80;99.90;;;;;;3501671;40;21346;-58
2021/07/07 11:53:38;;;;;;;6.50;6.30;;;23.80;99.90;;;;;;3495430;40;20870;-59
2021/07/07 11:56:07;;;;;;;6.53;6.33;;;23.80;99.90;;;;;;3501329;40;20680;-60
2021/07/07 11:58:37;;;;;;;7.00;6.60;;;23.80;99.90;;;;;;3508083;40;20649;-60
2021/07/07 12:01:08;;;;;;;6.90;6.70;;;23.80;99.90;;;;;;3508972;40;20475;-57
2021/07/07 12:03:36;;;;;;;7.80;7.37;;;23.80;99.90;;;;;;3503279;40;20660;-57
2021/07/07 12:06:09;;;;;;;7.50;7.20;;;23.80;99.90;;;;;;3506272;40;20706;-56
2021/07/07 12:08:38;;;;;;;7.23;7.03;;;23.80;99.90;;;;;;3509414;40;20471;-57
2021/07/07 12:11:11;;;;;;;8.13;7.83;;;23.80;99.90;;;;;;3508659;40;20444;-58
2021/07/07 12:13:39;;;;;;;7.93;7.63;;;23.80;99.90;;;;;;3504628;40;20478;-56
2021/07/07 12:16:25;;;;;;;7.20;6.90;;;23.80;99.90;;;;;;3504936;40;20758;-57
2021/07/07 12:18:54;;;;;;;7.00;6.80;;;23.80;99.90;;;;;;3504090;40;20961;-57
2021/07/07 12:21:41;;;;;;;8.00;7.40;;;23.80;99.90;;;;;;3505585;40;20880;-58
2021/07/07 12:24:10;;;;;;;7.60;7.20;;;23.80;99.90;;;;;;3505924;40;20941;-58
2021/07/07 12:26:39;;;;;;;7.20;6.90;;;23.80;99.90;;;;;;3504675;40;20475;-58
2021/07/07 12:29:10;;;;;;;7.40;7.10;;;23.80;99.90;;;;;;3505192;40;20483;-57
2021/07/07 12:31:39;;;;;;;7.50;7.20;;;23.80;99.90;;;;;;3504175;40;20761;-56
2021/07/07 12:34:07;;;;;;;7.90;7.60;;;23.80;99.90;;;;;;3509450;40;20483;-58
2021/07/07 12:36:39;;;;;;;7.33;7.03;;;23.80;99.90;;;;;;3504339;40;20455;-59
2021/07/07 12:39:21;;;;;;;7.23;6.93;;;23.80;99.90;;;;;;3504581;40;20494;-58
2021/07/07 12:41:54;;;;;;;7.27;7.00;;;23.80;99.90;;;;;;3495039;40;20503;-58
2021/07/07 12:44:30;;;;;;;7.13;6.93;;;23.80;99.90;;;;;;3498129;40;20476;-58
2021/07/07 12:47:00;;;;;;;7.37;7.10;;;23.80;99.90;;;;;;3487053;40;21348;-57
2021/07/07 12:49:45;;;;;;;7.37;6.80;;;23.80;99.90;;;;;;3497079;40;20524;-56
2021/07/07 12:52:23;;;;;;;7.90;7.30;;;23.80;99.90;;;;;;3491822;40;20516;-54
2021/07/07 12:55:12;;;;;;;7.20;7.00;;;23.80;99.90;;;;;;3497879;40;20460;-58
2021/07/07 12:57:47;;;;;;;7.50;7.30;;;23.80;99.90;;;;;;3495509;40;20773;-58
2021/07/07 13:00:19;;;;;;;8.03;7.73;;;23.80;99.90;;;;;;3495419;40;20480;-57